Time;durP1;ratioP1;P1;durP2;ratioP2;P2;SDS_P1;SDS_P2;PMS_P1;PMS_P2;Temp;Humidity;BMP_temperature;BMP_pressure;BME280_temperature;BME280_humidity;BME280_pressure;Samples;Min_cycle;Max_cycle;Signal;HPM_P1;HPM_P2
2021/09/11 00:00:25;;;;;;;7.78;5.95;;;20.00;99.90;;;;;;5053726;28;20037;-84
2021/09/11 00:02:52;;;;;;;7.80;5.97;;;20.00;99.90;;;;;;5053961;28;20049;-84
2021/09/11 00:05:21;;;;;;;8.75;5.88;;;20.00;99.90;;;;;;5053932;28;20052;-84
2021/09/11 00:07:48;;;;;;;7.80;6.15;;;20.00;99.90;;;;;;5053949;28;20048;-84
2021/09/11 00:10:16;;;;;;;9.52;6.38;;;20.00;99.90;;;;;;5053802;28;20049;-85
2021/09/11 00:12:43;;;;;;;9.77;6.57;;;20.00;99.90;;;;;;5053948;28;20041;-85
2021/09/11 00:15:15;;;;;;;8.65;6.57;;;20.00;99.90;;;;;;5053386;28;20484;-84
2021/09/11 00:17:43;;;;;;;9.48;6.35;;;19.90;99.90;;;;;;5053847;28;20055;-85
2021/09/11 00:20:12;;;;;;;9.30;6.65;;;19.90;99.90;;;;;;5053455;28;20136;-84
2021/09/11 00:22:39;;;;;;;9.48;6.93;;;19.90;99.90;;;;;;5053543;28;20040;-84
2021/09/11 00:25:09;;;;;;;9.00;7.32;;;19.90;99.90;;;;;;5053502;28;20067;-85
2021/09/11 00:27:36;;;;;;;10.18;7.20;;;19.90;99.70;;;;;;5052264;28;20057;-85
2021/09/11 00:30:03;;;;;;;9.43;6.65;;;19.90;99.60;;;;;;5053587;28;20421;-84
2021/09/11 00:32:31;;;;;;;8.60;6.43;;;19.90;99.60;;;;;;5045891;28;20041;-85
2021/09/11 00:34:58;;;;;;;8.30;6.80;;;19.90;99.60;;;;;;5053393;28;20045;-85
2021/09/11 00:37:25;;;;;;;8.68;6.60;;;19.80;99.60;;;;;;5053047;28;20487;-83
2021/09/11 00:39:52;;;;;;;9.18;6.20;;;19.80;99.70;;;;;;5053191;28;20049;-85
2021/09/11 00:42:20;;;;;;;9.57;7.30;;;19.80;99.80;;;;;;5052685;28;20048;-85
2021/09/11 00:44:47;;;;;;;11.32;7.68;;;19.80;99.90;;;;;;5045015;28;20045;-84
2021/09/11 00:47:14;;;;;;;10.52;7.57;;;19.80;99.90;;;;;;5044684;28;20055;-84
2021/09/11 00:49:42;;;;;;;12.25;8.18;;;19.80;99.90;;;;;;5053132;28;20049;-85
2021/09/11 00:52:09;;;;;;;9.80;7.68;;;19.80;99.90;;;;;;5052848;28;20148;-84
2021/09/11 00:54:36;;;;;;;10.27;7.70;;;19.70;99.90;;;;;;5053058;28;20133;-84
2021/09/11 00:57:04;;;;;;;10.40;7.88;;;19.80;99.90;;;;;;5052938;28;20071;-83
2021/09/11 00:59:31;;;;;;;10.02;8.23;;;19.70;99.90;;;;;;5045598;28;20398;-83
2021/09/11 01:01:59;;;;;;;9.13;7.50;;;19.80;99.90;;;;;;5052870;28;20045;-82
2021/09/11 01:04:28;;;;;;;9.77;7.32;;;19.80;99.90;;;;;;5052536;28;20325;-83
2021/09/11 01:06:57;;;;;;;10.10;7.75;;;19.80;99.90;;;;;;5052625;28;20060;-82
2021/09/11 01:09:24;;;;;;;9.15;7.32;;;19.70;99.90;;;;;;5052494;28;20053;-84
2021/09/11 01:11:52;;;;;;;9.82;7.55;;;19.80;99.90;;;;;;5052734;28;20041;-84
2021/09/11 01:14:19;;;;;;;10.38;7.82;;;19.70;99.90;;;;;;5052588;28;20135;-84
2021/09/11 01:16:46;;;;;;;9.32;7.47;;;19.90;99.90;;;;;;5052682;28;20059;-84
2021/09/11 01:19:13;;;;;;;9.60;7.40;;;19.70;99.90;;;;;;5052495;28;20049;-84
2021/09/11 01:21:41;;;;;;;10.27;7.82;;;19.70;99.90;;;;;;5052464;28;20041;-83
2021/09/11 01:24:09;;;;;;;9.65;7.60;;;19.70;99.90;;;;;;5052589;28;20052;-83
2021/09/11 01:26:36;;;;;;;9.80;7.72;;;19.70;99.90;;;;;;5052573;28;20057;-82
2021/09/11 01:29:03;;;;;;;10.52;8.07;;;19.70;99.90;;;;;;5052610;28;20053;-84
2021/09/11 01:31:35;;;;;;;8.35;6.97;;;19.80;99.90;;;;;;5044777;28;20483;-84
2021/09/11 01:34:02;;;;;;;9.65;7.53;;;19.70;99.90;;;;;;5052561;28;20131;-84
2021/09/11 01:36:30;;;;;;;10.98;7.78;;;19.80;99.90;;;;;;5044629;28;20554;-84
2021/09/11 01:38:57;;;;;;;10.40;8.30;;;19.80;99.90;;;;;;5052076;28;20044;-85
2021/09/11 01:41:25;;;;;;;10.07;8.05;;;19.70;99.90;;;;;;5052460;28;20147;-84
2021/09/11 01:43:53;;;;;;;10.32;7.72;;;19.60;99.90;;;;;;5052428;28;20414;-84
2021/09/11 01:46:20;;;;;;;10.23;7.80;;;19.70;99.90;;;;;;5052097;28;20143;-84
2021/09/11 01:48:47;;;;;;;10.10;7.93;;;19.60;99.90;;;;;;5052147;28;20076;-86
2021/09/11 01:51:14;;;;;;;9.07;7.30;;;19.70;99.90;;;;;;5052335;28;20041;-85
2021/09/11 01:53:41;;;;;;;9.70;7.85;;;19.60;99.90;;;;;;5052436;28;20127;-84
2021/09/11 01:56:08;;;;;;;8.98;6.93;;;19.50;99.90;;;;;;5052227;28;20405;-84
2021/09/11 01:58:36;;;;;;;9.10;6.78;;;19.60;99.90;;;;;;5052202;28;20055;-84
2021/09/11 02:01:03;;;;;;;9.32;7.30;;;19.60;99.90;;;;;;5052092;28;20055;-85
2021/09/11 02:03:30;;;;;;;11.05;7.18;;;19.50;99.90;;;;;;5044620;28;20128;-84
2021/09/11 02:05:57;;;;;;;10.10;7.32;;;19.60;99.90;;;;;;5052089;28;20432;-84
2021/09/11 02:08:24;;;;;;;8.98;7.28;;;19.60;99.90;;;;;;5052156;28;20139;-84
2021/09/11 02:10:51;;;;;;;9.23;6.90;;;19.50;99.90;;;;;;5052160;28;20073;-84
2021/09/11 02:13:18;;;;;;;10.82;7.40;;;19.70;99.90;;;;;;5051787;28;20061;-84
2021/09/11 02:15:47;;;;;;;9.70;7.63;;;19.50;99.90;;;;;;5052010;28;20077;-85
2021/09/11 02:18:14;;;;;;;9.45;7.38;;;19.70;99.90;;;;;;5051705;28;20056;-85
2021/09/11 02:20:41;;;;;;;8.77;7.32;;;19.70;99.90;;;;;;5052250;28;20045;-84
2021/09/11 02:23:08;;;;;;;8.95;7.07;;;19.60;99.90;;;;;;5051741;28;20047;-84
2021/09/11 02:25:35;;;;;;;9.68;7.65;;;19.50;99.90;;;;;;5052108;28;20110;-84
2021/09/11 02:28:02;;;;;;;8.23;6.85;;;19.50;99.90;;;;;;5051583;28;20566;-84
2021/09/11 02:30:29;;;;;;;8.60;6.65;;;19.70;99.90;;;;;;5051705;28;20402;-83
2021/09/11 02:32:57;;;;;;;9.70;6.55;;;19.60;99.90;;;;;;5052044;28;20044;-84
2021/09/11 02:35:24;;;;;;;8.73;6.72;;;19.70;99.90;;;;;;5051843;28;20075;-85
2021/09/11 02:37:52;;;;;;;8.35;6.72;;;19.70;99.90;;;;;;5051871;28;20049;-84
2021/09/11 02:40:19;;;;;;;9.32;7.57;;;19.60;99.90;;;;;;5051685;28;20402;-84
2021/09/11 02:42:46;;;;;;;9.48;7.40;;;19.60;99.90;;;;;;5051757;28;20049;-84
2021/09/11 02:45:13;;;;;;;8.95;7.07;;;19.70;99.90;;;;;;5051773;28;20061;-84
2021/09/11 02:47:40;;;;;;;9.10;7.18;;;19.70;99.90;;;;;;5051473;28;20053;-84
2021/09/11 02:50:09;;;;;;;8.35;7.00;;;19.60;99.90;;;;;;5051906;28;20049;-85
2021/09/11 02:52:36;;;;;;;9.68;6.90;;;19.40;99.90;;;;;;5055229;28;20053;-85
2021/09/11 02:55:04;;;;;;;10.20;7.55;;;19.60;99.90;;;;;;5055075;28;20041;-85
2021/09/11 02:57:31;;;;;;;9.00;7.28;;;19.60;99.90;;;;;;5047879;28;20140;-85
2021/09/11 02:59:58;;;;;;;10.80;7.57;;;19.50;99.90;;;;;;5055279;28;20047;-86
2021/09/11 03:02:25;;;;;;;8.43;6.88;;;19.40;99.90;;;;;;5053572;28;20545;-85
2021/09/11 03:04:52;;;;;;;8.85;6.93;;;19.30;99.90;;;;;;5053544;28;20047;-87
2021/09/11 03:07:21;;;;;;;10.38;7.35;;;19.30;99.90;;;;;;5053053;28;20045;-85
2021/09/11 03:09:48;;;;;;;9.10;6.90;;;19.50;99.90;;;;;;5051996;28;20421;-86
2021/09/11 03:12:15;;;;;;;8.45;6.80;;;19.50;99.90;;;;;;5052305;28;20152;-86
2021/09/11 03:14:42;;;;;;;8.85;6.45;;;19.40;99.90;;;;;;5052639;28;20048;-86
2021/09/11 03:17:09;;;;;;;8.68;6.53;;;19.40;99.90;;;;;;5052411;28;20049;-85
2021/09/11 03:19:36;;;;;;;8.07;6.53;;;19.50;99.90;;;;;;5052541;28;20055;-87
2021/09/11 03:22:04;;;;;;;8.32;6.40;;;19.40;99.90;;;;;;5052262;28;20044;-85
2021/09/11 03:24:32;;;;;;;8.23;6.43;;;19.40;99.90;;;;;;5044940;28;20043;-87
2021/09/11 03:26:59;;;;;;;8.90;5.95;;;19.40;99.90;;;;;;5052272;28;20144;-87
2021/09/11 03:29:26;;;;;;;8.60;6.40;;;19.30;99.90;;;;;;5052346;28;20044;-86
2021/09/11 03:31:53;;;;;;;7.82;5.93;;;19.40;99.90;;;;;;5052150;28;20047;-86
2021/09/11 03:34:20;;;;;;;7.63;5.97;;;19.30;99.90;;;;;;5051808;28;20049;-85
2021/09/11 03:36:47;;;;;;;8.07;6.35;;;19.40;99.90;;;;;;5052025;28;20052;-85
2021/09/11 03:39:14;;;;;;;8.43;5.75;;;19.20;99.90;;;;;;5051799;28;20384;-87
2021/09/11 03:41:43;;;;;;;7.75;6.20;;;19.40;99.90;;;;;;5052104;28;20070;-85
2021/09/11 03:44:10;;;;;;;7.43;5.80;;;19.20;99.90;;;;;;5051548;28;20131;-84
2021/09/11 03:46:37;;;;;;;8.95;6.50;;;19.20;99.90;;;;;;5051983;28;20284;-85
2021/09/11 03:49:04;;;;;;;9.38;6.55;;;;;;;;;;5051734;28;20044;-87
2021/09/11 03:51:32;;;;;;;10.05;7.20;;;19.20;99.90;;;;;;5051863;28;20570;-86
2021/09/11 03:53:59;;;;;;;8.65;7.05;;;19.10;99.90;;;;;;5052306;28;20055;-85
2021/09/11 03:56:26;;;;;;;8.25;6.63;;;19.10;99.90;;;;;;5043889;28;20045;-84
2021/09/11 03:58:55;;;;;;;12.73;6.80;;;;;;;;;;5051761;28;20051;-85
2021/09/11 04:01:23;;;;;;;8.90;7.22;;;;;;;;;;5047522;28;20139;-85
2021/09/11 04:03:52;;;;;;;9.50;6.88;;;;;;;;;;5043656;28;20131;-84
2021/09/11 04:06:20;;;;;;;9.18;6.63;;;;;;;;;;5045354;28;20136;-83
2021/09/11 04:08:47;;;;;;;9.55;7.10;;;;;;;;;;5053983;28;20139;-83
2021/09/11 04:11:14;;;;;;;9.63;7.05;;;;;;;;;;5053718;28;20216;-83
2021/09/11 04:13:42;;;;;;;9.38;7.00;;;;;;;;;;5053728;28;20132;-85
2021/09/11 04:16:10;;;;;;;9.05;6.72;;;;;;;;;;5053479;28;20045;-85
2021/09/11 04:18:38;;;;;;;9.05;6.97;;;;;;;;;;5053562;28;20399;-86
2021/09/11 04:21:05;;;;;;;8.63;5.60;;;;;;;;;;5053765;28;20041;-87
2021/09/11 04:23:32;;;;;;;7.47;5.60;;;;;;;;;;5053943;28;20127;-88
2021/09/11 04:26:00;;;;;;;7.35;5.00;;;;;;;;;;5053633;28;20490;-86
2021/09/11 04:28:27;;;;;;;6.40;4.32;;;;;;;;;;5053394;28;20135;-87
2021/09/11 04:30:54;;;;;;;7.28;4.70;;;;;;;;;;5053461;28;20047;-81
2021/09/11 04:33:23;;;;;;;5.97;4.00;;;;;;;;;;5053093;28;20057;-80
2021/09/11 04:35:50;;;;;;;5.65;3.78;;;;;;;;;;5053298;28;20495;-80
2021/09/11 04:38:18;;;;;;;5.53;3.45;;;;;;;;;;5052977;28;20524;-80
2021/09/11 04:40:45;;;;;;;5.68;3.47;;;;;;;;;;5053348;28;20041;-80
2021/09/11 04:43:12;;;;;;;5.35;3.30;;;;;;;;;;5053005;28;20055;-81
2021/09/11 04:45:40;;;;;;;4.88;3.20;;;;;;;;;;5053656;28;20454;-80
2021/09/11 04:48:07;;;;;;;5.07;3.22;;;;;;;;;;5052765;28;20566;-80
2021/09/11 04:50:36;;;;;;;4.50;3.00;;;;;;;;;;5053207;28;20068;-81
2021/09/11 04:53:04;;;;;;;4.75;3.20;;;;;;;;;;5053022;28;20132;-80
2021/09/11 04:55:31;;;;;;;6.18;3.50;;;;;;;;;;5044963;28;20127;-81
2021/09/11 04:57:58;;;;;;;4.80;3.30;;;;;;;;;;5053060;28;20462;-81
2021/09/11 05:00:26;;;;;;;4.60;3.10;;;;;;;;;;5052591;28;20127;-80
2021/09/11 05:02:53;;;;;;;4.68;3.22;;;;;;;;;;5053146;28;20465;-80
2021/09/11 05:05:20;;;;;;;5.13;3.20;;;;;;;;;;5052655;28;20053;-80
2021/09/11 05:07:49;;;;;;;5.55;3.10;;;;;;;;;;5052894;28;20068;-81
2021/09/11 05:10:16;;;;;;;4.72;2.75;;;;;;;;;;5052539;28;20139;-81
2021/09/11 05:12:44;;;;;;;4.55;2.90;;;;;;;;;;5052681;28;20051;-81
2021/09/11 05:15:12;;;;;;;5.47;3.35;;;;;;;;;;5051906;28;20665;-81
2021/09/11 05:17:39;;;;;;;4.80;3.15;;;;;;;;;;5052393;28;20052;-81
2021/09/11 05:20:08;;;;;;;5.50;3.05;;;;;;;;;;5052224;28;20131;-81
2021/09/11 05:22:35;;;;;;;4.95;2.75;;;;;;;;;;5052544;28;20052;-81
2021/09/11 05:25:06;;;;;;;5.45;2.90;;;;;;;;;;5052244;28;20586;-82
2021/09/11 05:27:34;;;;;;;4.25;2.80;;;;;;;;;;5045325;28;20578;-81
2021/09/11 05:30:01;;;;;;;4.57;3.10;;;;;;;;;;5052394;28;20521;-80
2021/09/11 05:32:28;;;;;;;5.32;3.00;;;;;;;;;;5052092;28;20044;-80
2021/09/11 05:34:56;;;;;;;5.18;2.83;;;;;;;;;;5052545;28;20041;-82
2021/09/11 05:37:23;;;;;;;4.60;2.70;;;;;;;;;;5049766;28;20486;-79
2021/09/11 05:39:50;;;;;;;4.32;2.80;;;;;;;;;;5051883;28;20080;-78
2021/09/11 05:42:19;;;;;;;4.25;2.60;;;;;;;;;;5051447;28;20490;-82
2021/09/11 05:44:47;;;;;;;4.00;2.58;;;;;;;;;;5052159;28;20083;-82
2021/09/11 05:47:14;;;;;;;3.72;2.72;;;;;;;;;;5050388;28;20414;-81
2021/09/11 05:49:41;;;;;;;4.30;2.80;;;;;;;;;;5052258;28;20051;-81
2021/09/11 05:52:09;;;;;;;4.10;2.72;;;;;;;;;;5051341;28;20063;-81
2021/09/11 05:54:36;;;;;;;5.00;2.70;;;;;;;;;;5051369;28;20140;-80
2021/09/11 05:57:04;;;;;;;4.22;2.53;;;;;;;;;;5050464;28;20052;-81
2021/09/11 05:59:33;;;;;;;5.40;2.70;;;;;;;;;;5050381;28;20045;-80
2021/09/11 06:02:00;;;;;;;5.07;2.72;;;;;;;;;;5052075;28;20056;-82
2021/09/11 06:04:27;;;;;;;4.50;2.55;;;;;;;;;;5051680;28;20480;-82
2021/09/11 06:06:55;;;;;;;4.20;2.70;;;;;;;;;;5051765;28;20144;-82
2021/09/11 06:09:22;;;;;;;3.70;2.38;;;;;;;;;;5051492;28;20060;-83
2021/09/11 06:11:49;;;;;;;5.00;2.80;;;;;;;;;;5052115;28;20391;-83
2021/09/11 06:14:17;;;;;;;3.95;2.50;;;;;;;;;;5052005;28;20124;-83
2021/09/11 06:16:45;;;;;;;4.40;2.75;;;;;;;;;;5051809;28;20136;-83
2021/09/11 06:19:13;;;;;;;5.25;3.10;;;;;;;;;;5051607;28;20084;-84
2021/09/11 06:21:40;;;;;;;5.28;3.42;;;;;;;;;;5051391;28;20045;-86
2021/09/11 06:24:07;;;;;;;4.88;3.13;;;;;;;;;;5048778;28;20071;-83
2021/09/11 06:26:35;;;;;;;5.00;3.20;;;;;;;;;;5053306;28;20049;-82
2021/09/11 06:29:02;;;;;;;4.47;3.00;;;;;;;;;;5055207;28;20087;-82
2021/09/11 06:31:30;;;;;;;4.40;3.00;;;;;;;;;;5055304;28;20132;-81
2021/09/11 06:33:58;;;;;;;4.40;2.83;;;;;;;;;;5055640;28;20085;-81
2021/09/11 06:36:26;;;;;;;4.43;3.00;;;;;;;;;;5055337;28;20148;-81
2021/09/11 06:38:53;;;;;;;4.15;2.90;;;;;;;;;;5055446;28;20140;-79
2021/09/11 06:41:20;;;;;;;4.60;2.92;;;;;;;;;;5054996;28;20148;-81
2021/09/11 06:43:48;;;;;;;4.53;3.03;;;;;;;;;;5055802;28;20251;-82
2021/09/11 06:46:15;;;;;;;5.22;3.00;;;;;;;;;;5055981;28;20049;-89
2021/09/11 06:48:42;;;;;;;5.07;2.95;;;;;;;;;;5056289;28;20131;-82
2021/09/11 06:51:13;;;;;;;4.78;3.33;;;;;;;;;;5055671;28;20051;-81
2021/09/11 06:53:41;;;;;;;5.05;3.00;;;;;;;;;;5055876;28;20068;-81
2021/09/11 06:56:08;;;;;;;4.50;2.80;;;;;;;;;;5054807;28;20148;-82
2021/09/11 06:58:35;;;;;;;4.07;2.70;;;;;;;;;;5054354;28;20144;-82
2021/09/11 07:01:03;;;;;;;4.70;2.90;;;;;;;;;;5055472;28;20147;-82
2021/09/11 07:03:30;;;;;;;5.95;2.70;;;;;;;;;;5055719;28;20127;-82
2021/09/11 07:05:58;;;;;;;4.40;2.90;;;;;;;;;;5055605;28;20045;-81
2021/09/11 07:08:27;;;;;;;4.22;2.70;;;;;;;;;;5055485;28;20135;-82
2021/09/11 07:10:54;;;;;;;4.22;2.90;;;;;;;;;;5055690;28;20049;-82
2021/09/11 07:13:22;;;;;;;5.22;2.75;;;;;;;;;;5055601;28;20049;-81
2021/09/11 07:15:49;;;;;;;4.30;2.88;;;;;;;;;;5055201;28;20067;-82
2021/09/11 07:18:17;;;;;;;4.57;2.70;;;;;;;;;;5055116;28;20497;-83
2021/09/11 07:20:45;;;;;;;4.32;2.92;;;;;;;;;;5055259;28;20139;-82
2021/09/11 07:23:13;;;;;;;4.75;2.95;;;;;;;;;;5055168;28;20072;-82
2021/09/11 07:25:42;;;;;;;4.82;3.05;;;;;;;;;;5054730;28;20056;-82
2021/09/11 07:28:09;;;;;;;4.70;2.95;;;;;;;;;;5055109;28;20048;-82
2021/09/11 07:30:37;;;;;;;4.65;2.83;;;;;;;;;;5054946;28;20127;-82
2021/09/11 07:33:05;;;;;;;4.32;2.70;;;;;;;;;;5054861;28;20475;-82
2021/09/11 07:35:33;;;;;;;4.80;2.75;;;;;;;;;;5055025;28;20102;-82
2021/09/11 07:38:00;;;;;;;5.22;2.65;;;;;;;;;;5054279;28;20406;-82
2021/09/11 07:40:28;;;;;;;5.13;2.50;;;;;;;;;;5054778;28;20509;-82
2021/09/11 07:42:56;;;;;;;4.63;2.80;;;;;;;;;;5054665;28;20494;-82
2021/09/11 07:45:24;;;;;;;4.03;2.70;;;;;;;;;;5054834;28;20144;-82
2021/09/11 07:47:51;;;;;;;4.78;2.80;;;;;;;;;;5054781;28;20055;-82
2021/09/11 07:50:25;;;;;;;3.90;2.40;;;;;;;;;;5054792;28;20122;-82
2021/09/11 07:52:53;;;;;;;4.10;2.58;;;;;;;;;;5054677;28;20060;-82
2021/09/11 07:55:20;;;;;;;4.03;2.35;;;;;;;;;;5054708;28;20045;-82
2021/09/11 07:57:48;;;;;;;4.15;2.33;;;;;;;;;;5054796;28;20049;-83
2021/09/11 08:00:18;;;;;;;6.03;3.20;;;;;;;;;;5054898;28;20067;-82
2021/09/11 08:02:46;;;;;;;4.65;2.50;;;;;;;;;;5054821;28;20491;-82
2021/09/11 08:05:13;;;;;;;4.75;2.55;;;;;;;;;;5054599;28;20045;-82
2021/09/11 08:07:41;;;;;;;3.78;2.20;;;;;;;;;;5054662;28;20041;-82
2021/09/11 08:10:09;;;;;;;4.35;2.50;;;;;;;;;;5054645;28;20087;-82
2021/09/11 08:12:36;;;;;;;4.20;2.53;;;;;;;;;;5054626;28;20049;-82
2021/09/11 08:15:05;;;;;;;4.82;2.45;;;;;;;;;;5054953;28;20136;-82
2021/09/11 08:17:33;;;;;;;3.92;2.20;;;;;;;;;;5054334;28;20132;-83
2021/09/11 08:20:01;;;;;;;3.72;2.30;;;;;;;;;;5053974;28;20052;-82
2021/09/11 08:22:28;;;;;;;4.10;2.60;;;;;;;;;;5054338;28;20164;-82
2021/09/11 08:24:56;;;;;;;4.80;2.40;;;;;;;;;;5054283;28;20055;-83
2021/09/11 08:27:24;;;;;;;3.92;2.38;;;;;;;;;;5053629;28;20487;-83
2021/09/11 08:29:51;;;;;;;3.90;2.38;;;;;;;;;;5053910;28;20132;-83
2021/09/11 08:32:18;;;;;;;4.25;2.40;;;;;;;;;;5054131;28;20049;-83
2021/09/11 08:34:47;;;;;;;3.42;2.20;;;;;;;;;;5054342;28;20128;-83
2021/09/11 08:37:16;;;;;;;4.68;2.50;;;;;;;;;;5055968;28;20475;-83
2021/09/11 08:39:43;;;;;;;3.95;2.13;;;;;;;;;;5054226;28;20084;-81
2021/09/11 08:42:11;;;;;;;4.18;2.40;;;;;;;;;;5054040;28;20041;-82
2021/09/11 08:44:39;;;;;;;5.50;2.30;;;;;;;;;;5053878;28;20045;-83
2021/09/11 08:47:07;;;;;;;3.95;2.30;;;;;;;;;;5053647;28;20055;-83
2021/09/11 08:49:34;;;;;;;3.92;2.28;;;;;;;;;;5052870;28;20474;-83
2021/09/11 08:52:07;;;;;;;3.63;2.20;;;;;;;;;;5053821;28;20055;-83
2021/09/11 08:54:35;;;;;;;3.60;2.30;;;;;;;;;;5053773;28;20045;-85
2021/09/11 08:57:20;;;;;;;4.63;2.60;;;;;;;;;;5053458;28;20398;-83
2021/09/11 08:59:47;;;;;;;4.95;2.55;;;;;;;;;;5053375;28;20406;-83
2021/09/11 09:02:15;;;;;;;4.40;2.70;;;;;;;;;;5052417;28;20059;-83
2021/09/11 09:04:45;;;;;;;4.20;2.60;;;;;;;;;;5053387;28;20051;-83
2021/09/11 09:07:16;;;;;;;4.10;2.50;;;;;;;;;;5053145;28;20040;-83
2021/09/11 09:09:43;;;;;;;4.47;2.70;;;;;;;;;;5053224;28;20481;-83
2021/09/11 09:12:17;;;;;;;4.70;2.60;;;;;;;;;;5053274;28;20128;-83
2021/09/11 09:14:59;;;;;;;4.35;2.50;;;;;;;;;;5053438;28;20049;-83
2021/09/11 09:17:38;;;;;;;3.92;2.63;;;;;;;;;;5053349;28;20045;-83
2021/09/11 09:20:27;;;;;;;4.18;2.63;;;;;;;;;;5053301;28;20407;-83
2021/09/11 09:25:53;;;;;;;4.40;2.70;;;;;;;;;;5110895;27;20359;-83
2021/09/11 09:28:20;;;;;;;4.97;2.53;;;;;;;;;;5110840;28;20139;-83
2021/09/11 09:30:49;;;;;;;4.32;2.55;;;;;;;;;;5110909;28;20074;-83
2021/09/11 09:33:21;;;;;;;4.32;2.53;;;;;;;;;;5110785;28;20039;-84
2021/09/11 09:35:49;;;;;;;3.50;2.28;;;;;;;;;;5110868;28;20130;-83
2021/09/11 09:38:16;;;;;;;4.45;2.45;;;;;;;;;;5110761;28;20043;-83
2021/09/11 09:40:45;;;;;;;3.78;2.20;;;;;;;;;;5110563;28;20044;-83
2021/09/11 09:43:29;;;;;;;3.40;1.90;;;;;;;;;;5110433;28;20052;-83
2021/09/11 09:46:06;;;;;;;3.88;2.17;;;;;;;;;;5110361;28;20481;-83
2021/09/11 09:48:35;;;;;;;3.60;2.10;;;;;;;;;;5110544;28;20402;-83
2021/09/11 09:51:07;;;;;;;3.42;1.83;;;;;;;;;;5110287;28;20051;-83
2021/09/11 09:53:35;;;;;;;4.32;2.33;;;;;;;;;;5110220;28;20051;-83
2021/09/11 09:56:02;;;;;;;4.03;2.47;;;;;;;;;;5110226;28;20054;-83
2021/09/11 09:58:31;;;;;;;3.90;2.15;;;;;;;;;;5110136;28;20048;-82
2021/09/11 10:00:59;;;;;;;3.40;2.00;;;;;;;;;;5110195;28;20050;-83
2021/09/11 10:03:26;;;;;;;4.05;2.20;;;;;;;;;;5110264;28;20040;-82
2021/09/11 10:05:57;;;;;;;3.40;1.98;;;;;;;;;;5110020;28;20048;-83
2021/09/11 10:08:27;;;;;;;4.28;2.10;;;;;;;;;;5109910;28;20054;-83
2021/09/11 10:10:54;;;;;;;4.18;1.90;;;;;;;;;;5109587;28;20485;-83
2021/09/11 10:13:23;;;;;;;4.75;2.13;;;;;;;;;;5109878;28;20134;-82
2021/09/11 10:15:54;;;;;;;4.88;2.30;;;;;;;;;;5110126;28;20054;-83
2021/09/11 10:18:44;;;;;;;4.03;2.13;;;;;;;;;;5109909;28;20134;-83
2021/09/11 10:21:17;;;;;;;3.85;2.35;;;;;;;;;;5109627;28;20512;-83
2021/09/11 10:24:00;;;;;;;3.88;2.10;;;;;;;;;;5109589;28;20131;-83
2021/09/11 10:26:47;;;;;;;3.30;1.80;;;;;;;;;;5108681;28;20127;-83
2021/09/11 10:29:52;;;;;;;3.40;1.98;;;;;;;;;;5109704;28;20446;-83
2021/09/11 10:32:23;;;;;;;2.90;1.80;;;;;;;;;;5109776;28;20072;-83
2021/09/11 10:34:56;;;;;;;3.95;2.03;;;;;;;;;;5109482;28;20047;-83
2021/09/11 10:37:37;;;;;;;3.63;1.90;;;;;;;;;;5095619;28;20135;-83
2021/09/11 10:40:25;;;;;;;3.50;1.80;;;;;;;;;;5095814;28;20432;-83
2021/09/11 10:43:28;;;;;;;3.72;1.80;;;;;;;;;;5095752;28;20044;-83
2021/09/11 10:45:57;;;;;;;;;;;;;;;;;;5096114;28;20052;-82
2021/09/11 10:48:44;;;;;;;3.47;1.85;;;;;;;;;;5095652;28;19934;-81
2021/09/11 10:51:13;;;;;;;5.10;1.90;;;;;;;;;;5095847;28;20048;-83
2021/09/11 10:53:41;;;;;;;3.33;1.90;;;;;;;;;;5095517;28;20048;-83
2021/09/11 10:56:24;;;;;;;3.40;1.70;;;;;;;;;;5095119;28;20574;-83
2021/09/11 10:59:28;;;;;;;3.45;1.92;;;;;;;;;;5095369;28;20048;-83
2021/09/11 11:02:01;;;;;;;3.67;1.98;;;;;;;;;;5095513;28;20055;-83
2021/09/11 11:04:31;;;;;;;3.10;1.73;;;;;;;;;;5095455;28;20117;-83
2021/09/11 11:06:59;;;;;;;3.40;1.92;;;;;;;;;;5095243;28;20405;-83
2021/09/11 11:09:27;;;;;;;3.72;1.92;;;;;;;;;;5095518;28;20052;-83
2021/09/11 11:11:56;;;;;;;4.00;1.70;;;;;;;;;;5095133;28;20055;-83
2021/09/11 11:14:23;;;;;;;3.10;1.60;;;;;;;;;;5095294;28;20051;-82
2021/09/11 11:16:51;;;;;;;3.63;1.65;;;;;;;;;;5095219;28;20055;-82
2021/09/11 11:19:23;;;;;;;3.63;1.83;;;;;;;;;;5094969;28;20044;-83
2021/09/11 11:22:00;;;;;;;3.28;1.77;;;;;;;;;;5095006;28;20052;-82
2021/09/11 11:24:29;;;;;;;3.97;1.92;;;;;;;;;;5094876;28;20052;-82
2021/09/11 11:26:58;;;;;;;3.08;1.80;;;;;;;;;;5094868;28;20497;-82
2021/09/11 11:29:27;;;;;;;6.30;3.38;;;;;;;;;;5094975;28;20040;-83
2021/09/11 11:31:54;;;;;;;7.38;4.32;;;;;;;;;;5094823;28;20509;-83
2021/09/11 11:34:22;;;;;;;6.25;3.03;;;;;;;;;;5094616;28;20135;-82
2021/09/11 11:36:50;;;;;;;3.97;2.20;;;;;;;;;;5094881;28;20118;-83
2021/09/11 11:39:28;;;;;;;3.72;1.95;;;;;;;;;;5094754;28;20050;-82
2021/09/11 11:41:57;;;;;;;3.85;1.70;;;;;;;;;;5094595;28;20047;-82
2021/09/11 11:44:25;;;;;;;2.97;1.50;;;;;;;;;;5094481;28;20134;-83
2021/09/11 11:46:55;;;;;;;3.58;1.73;;;;;;;;;;5094018;28;20048;-82
2021/09/11 11:49:22;;;;;;;3.63;1.70;;;;;;;;;;5094483;28;20040;-83
2021/09/11 11:51:54;;;;;;;3.03;1.55;;;;;;;;;;5094597;28;20050;-82
2021/09/11 11:54:22;;;;;;;4.65;1.80;;;;;;;;;;5094532;28;20131;-83
2021/09/11 11:56:52;;;;;;;3.00;1.50;;;;;;;;;;5094367;28;20044;-83
2021/09/11 11:59:23;;;;;;;3.03;1.48;;;;;;;;;;5094121;28;20055;-83
2021/09/11 12:01:51;;;;;;;3.20;1.77;;;;;;;;;;5094415;28;20044;-83
2021/09/11 12:04:20;;;;;;;3.75;1.67;;;;;;;;;;5094071;28;20044;-82
2021/09/11 12:06:52;;;;;;;3.20;1.50;;;;;;;;;;5094239;28;20101;-82
2021/09/11 12:09:20;;;;;;;3.22;1.75;;;;;;;;;;5094253;28;20055;-83
2021/09/11 12:11:48;;;;;;;3.92;2.03;;;;;;;;;;5093978;28;20504;-82
2021/09/11 12:14:17;;;;;;;3.30;1.55;;;;;;;;;;5094015;28;20472;-82
2021/09/11 12:16:46;;;;;;;5.63;1.85;;;;;;;;;;5093772;28;20051;-82
2021/09/11 12:19:15;;;;;;;3.63;1.55;;;;;;;;;;5093882;28;20130;-83
2021/09/11 12:21:42;;;;;;;2.22;1.17;;;;;;;;;;5093850;28;20045;-82
2021/09/11 12:24:23;;;;;;;3.58;1.40;;;;;;;;;;5093554;28;20052;-83
2021/09/11 12:26:50;;;;;;;3.33;1.50;;;;;;;;;;5093937;28;20408;-82
2021/09/11 12:29:19;;;;;;;3.53;1.60;;;;;;;;;;5093833;28;20167;-82
2021/09/11 12:31:54;;;;;;;3.78;1.70;;;;;;;;;;5093875;28;20128;-83
2021/09/11 12:34:21;;;;;;;4.38;1.60;;;;;;;;;;5093745;28;20044;-83
2021/09/11 12:36:49;;;;;;;4.25;1.55;;;;;;;;;;5093542;28;20104;-83
2021/09/11 12:39:28;;;;;;;2.85;1.45;;;;;;;;;;5093696;28;20072;-82
2021/09/11 12:41:57;;;;;;;2.80;1.50;;;;;;;;;;5093694;28;20054;-82
2021/09/11 12:44:30;;;;;;;4.22;1.80;;;;;;;;;;5093480;28;20147;-82
2021/09/11 12:46:59;;;;;;;3.00;1.63;;;;;;;;;;5093489;28;20042;-81
2021/09/11 12:49:28;;;;;;;6.25;1.75;;;;;;;;;;5093372;28;20124;-82
2021/09/11 12:51:56;;;;;;;3.40;1.60;;;;;;;;;;5093278;28;20499;-82
2021/09/11 12:54:24;;;;;;;3.72;1.77;;;;;;;;;;5093514;28;20054;-82
2021/09/11 12:56:52;;;;;;;3.08;1.50;;;;;;;;;;5093294;28;20050;-82
2021/09/11 12:59:20;;;;;;;3.15;1.65;;;;;;;;;;5093082;28;20040;-83
2021/09/11 13:01:49;;;;;;;2.58;1.40;;;;;;;;;;5093258;28;20054;-83
2021/09/11 13:04:17;;;;;;;2.88;1.50;;;;;;;;;;5093513;28;20130;-83
2021/09/11 13:06:45;;;;;;;3.67;1.50;;;;;;;;;;5093399;28;20108;-83
2021/09/11 13:09:14;;;;;;;3.67;1.75;;;;;;;;;;5093410;28;20051;-83
2021/09/11 13:11:42;;;;;;;2.90;1.50;;;;;;;;;;5093107;28;20047;-84
2021/09/11 13:14:10;;;;;;;3.33;1.52;;;;;;;;;;5092919;28;20048;-83
2021/09/11 13:16:38;;;;;;;3.58;1.60;;;;;;;;;;5093170;28;20070;-83
2021/09/11 13:19:08;;;;;;;3.72;1.80;;;;;;;;;;5093125;28;20054;-84
2021/09/11 13:21:37;;;;;;;6.03;2.20;;;;;;;;;;5093086;28;20044;-84
2021/09/11 13:24:04;;;;;;;4.72;2.25;;;;;;;;;;5092864;28;20134;-84
2021/09/11 13:26:33;;;;;;;3.63;1.80;;;24.50;99.40;;;;;;5092905;28;20326;-84
2021/09/11 13:29:02;;;;;;;3.25;1.70;;;24.60;99.40;;;;;;5072648;28;20051;-84
2021/09/11 13:31:30;;;;;;;3.50;1.50;;;24.90;98.90;;;;;;5072860;28;20070;-84
2021/09/11 13:33:58;;;;;;;3.25;1.63;;;25.20;98.10;;;;;;5072243;28;20052;-86
2021/09/11 13:36:28;;;;;;;4.35;1.63;;;25.40;97.70;;;;;;5072750;28;20045;-86
2021/09/11 13:38:55;;;;;;;3.08;1.58;;;25.60;97.00;;;;;;5072458;28;20055;-87
2021/09/11 13:41:24;;;;;;;3.47;1.50;;;25.80;96.50;;;;;;5073032;28;20048;-86
2021/09/11 13:43:52;;;;;;;3.78;1.60;;;26.00;96.00;;;;;;5072619;28;20047;-85
2021/09/11 13:46:20;;;;;;;2.97;1.52;;;26.00;95.30;;;;;;5072114;28;20044;-85
2021/09/11 13:48:48;;;;;;;2.70;1.40;;;26.00;94.70;;;;;;5071514;28;20120;-85
2021/09/11 13:51:17;;;;;;;4.38;1.60;;;26.00;94.50;;;;;;5072310;28;20123;-85
2021/09/11 13:53:45;;;;;;;3.58;1.70;;;25.90;94.40;;;;;;5072497;28;20140;-85
2021/09/11 13:56:13;;;;;;;3.65;1.55;;;25.80;94.30;;;;;;5072661;28;20054;-85
2021/09/11 13:58:40;;;;;;;2.83;1.40;;;25.90;94.70;;;;;;5070729;28;20048;-86
2021/09/11 14:01:07;;;;;;;3.35;1.83;;;26.20;94.80;;;;;;5071121;28;20127;-84
2021/09/11 14:03:35;;;;;;;2.95;1.50;;;26.50;94.50;;;;;;5069175;28;20047;-84
2021/09/11 14:06:04;;;;;;;3.05;1.60;;;26.80;94.20;;;;;;5069551;28;20071;-84
2021/09/11 14:08:31;;;;;;;2.90;1.50;;;27.10;93.00;;;;;;5069776;28;20127;-85
2021/09/11 14:10:59;;;;;;;3.08;1.60;;;27.50;92.50;;;;;;5068692;28;20553;-85